createdAt,value
2022-11-27T00:01:20.432Z,98073.28
2022-11-27T00:03:47.409Z,98059.63
2022-11-27T00:06:16.349Z,98047.78
2022-11-27T00:08:44.301Z,98046.88
2022-11-27T00:11:16.486Z,98044.69
2022-11-27T00:13:43.442Z,98033.75
2022-11-27T00:16:10.517Z,98038.50
2022-11-27T00:18:37.442Z,98032.13
2022-11-27T00:21:24.793Z,98031.22
2022-11-27T00:23:53.024Z,98032.31
2022-11-27T00:26:19.818Z,98041.59
2022-11-27T00:28:46.592Z,98042.16
2022-11-27T00:31:15.213Z,98041.22
2022-11-27T00:33:42.013Z,98043.25
2022-11-27T00:36:09.479Z,98041.06
2022-11-27T00:38:39.224Z,98041.06
2022-11-27T00:41:08.201Z,98037.44
2022-11-27T00:43:43.495Z,98033.22
2022-11-27T00:46:11.824Z,98021.59
2022-11-27T00:48:38.659Z,98005.78
2022-11-27T00:51:08.548Z,98002.13
2022-11-27T00:53:35.376Z,98002.13
2022-11-27T00:56:02.274Z,98012.13
2022-11-27T00:58:30.611Z,98011.22
2022-11-27T01:01:00.210Z,98008.31
2022-11-27T01:03:28.049Z,98015.06
2022-11-27T01:05:54.712Z,98015.41
2022-11-27T01:08:21.650Z,98011.22
2022-11-27T01:10:55.567Z,98021.22
2022-11-27T01:13:27.528Z,98017.56
2022-11-27T01:16:01.257Z,98019.41
2022-11-27T01:18:28.496Z,98019.41
2022-11-27T01:20:55.617Z,98013.75
2022-11-27T01:23:22.890Z,98006.13
2022-11-27T01:25:49.771Z,98007.94
2022-11-27T01:28:17.123Z,98019.94
2022-11-27T01:30:43.766Z,98017.22
2022-11-27T01:33:10.625Z,98017.22
2022-11-27T01:35:37.305Z,98023.22
2022-11-27T01:38:04.395Z,98034.66
2022-11-27T01:40:31.266Z,98031.75
2022-11-27T01:42:58.103Z,98032.84
2022-11-27T01:45:24.813Z,98045.75
2022-11-27T01:47:57.580Z,98035.38
2022-11-27T01:50:31.438Z,98037.94
2022-11-27T01:53:05.953Z,98030.28
2022-11-27T01:55:39.221Z,98021.19
2022-11-27T01:58:23.328Z,98008.13
2022-11-27T02:00:50.147Z,98009.38
2022-11-27T02:03:17.056Z,98007.91
2022-11-27T02:05:43.920Z,98001.56
2022-11-27T02:08:13.689Z,98000.09
2022-11-27T02:10:58.411Z,97999.19
2022-11-27T02:13:31.396Z,97990.84
2022-11-27T02:16:07.807Z,97994.63
2022-11-27T02:18:41.283Z,97988.09
2022-11-27T02:21:20.585Z,97981.00
2022-11-27T02:23:59.647Z,97975.34
2022-11-27T02:26:41.578Z,97976.97
2022-11-27T02:29:10.936Z,97976.81
2022-11-27T02:31:48.511Z,97966.97
2022-11-27T02:34:39.706Z,97961.34
2022-11-27T02:37:16.206Z,97953.72
2022-11-27T02:39:58.206Z,97955.53
2022-11-27T02:42:27.417Z,97945.16
2022-11-27T02:45:01.981Z,97948.44
2022-11-27T02:47:29.617Z,97941.53
2022-11-27T02:49:57.182Z,97943.53
2022-11-27T02:52:26.786Z,97941.16
2022-11-27T02:54:57.155Z,97947.16
2022-11-27T02:57:25.149Z,97949.16
2022-11-27T02:59:52.122Z,97944.41
2022-11-27T03:02:22.496Z,97942.97
2022-11-27T03:04:52.461Z,97949.16
2022-11-27T03:07:25.727Z,97940.78
2022-11-27T03:09:54.221Z,97940.78
2022-11-27T03:12:21.033Z,97936.63
2022-11-27T03:14:48.625Z,97929.72
2022-11-27T03:17:55.202Z,97925.72
2022-11-27T03:20:31.591Z,97924.06
2022-11-27T03:22:58.714Z,97920.63
2022-11-27T03:25:25.449Z,97919.16
2022-11-27T03:27:57.068Z,97922.97
2022-11-27T03:30:24.144Z,97910.06
2022-11-27T03:32:50.936Z,97912.06
2022-11-27T03:35:20.470Z,97912.06
2022-11-27T03:37:47.543Z,97906.63
2022-11-27T03:40:15.170Z,97905.16
2022-11-27T03:43:03.517Z,97907.72
2022-11-27T03:45:42.810Z,97904.78
2022-11-27T03:48:21.388Z,97902.63
2022-11-27T03:51:32.852Z,97900.44
2022-11-27T03:54:05.694Z,97901.72
2022-11-27T03:56:36.961Z,97901.72
2022-11-27T03:59:15.866Z,97904.44
2022-11-27T04:01:42.723Z,97888.81
2022-11-27T04:04:09.604Z,97897.72
2022-11-27T04:06:36.471Z,97888.81
2022-11-27T04:09:03.653Z,97890.09
2022-11-27T04:11:30.418Z,97893.53
2022-11-27T04:13:58.717Z,97894.63
2022-11-27T04:16:25.551Z,97895.88
2022-11-27T04:18:52.366Z,97893.88
2022-11-27T04:21:19.155Z,97888.44
2022-11-27T04:23:45.819Z,97883.00
2022-11-27T04:26:12.779Z,97889.72
2022-11-27T04:28:39.447Z,97887.50
2022-11-27T04:31:06.249Z,97897.16
2022-11-27T04:33:33.095Z,97894.97
2022-11-27T04:35:59.938Z,97894.97
2022-11-27T04:38:26.608Z,97911.13
2022-11-27T04:40:53.616Z,97910.97
2022-11-27T04:43:20.306Z,97902.94
2022-11-27T04:45:47.065Z,97899.84
2022-11-27T04:48:13.869Z,97894.56
2022-11-27T04:50:40.641Z,97885.13
2022-11-27T04:53:13.329Z,97892.06
2022-11-27T04:55:41.641Z,97883.88
2022-11-27T04:58:08.359Z,97875.72
2022-11-27T05:00:35.161Z,97881.88
2022-11-27T05:03:01.928Z,97878.44
2022-11-27T05:05:28.646Z,97892.06
2022-11-27T05:07:55.388Z,97894.78
2022-11-27T05:10:23.084Z,97897.31
2022-11-27T05:12:49.753Z,97891.13
2022-11-27T05:15:16.481Z,97891.84
2022-11-27T05:17:43.194Z,97867.34
2022-11-27T05:20:10.563Z,97871.34
2022-11-27T05:22:37.357Z,97869.34
2022-11-27T05:25:04.359Z,97850.28
2022-11-27T05:27:31.035Z,97848.28
2022-11-27T05:29:57.808Z,97854.44
2022-11-27T05:32:24.568Z,97849.00
2022-11-27T05:34:51.326Z,97844.28
2022-11-27T05:37:19.801Z,97838.13
2022-11-27T05:39:47.165Z,97829.22
2022-11-27T05:42:13.912Z,97824.50
2022-11-27T05:44:40.879Z,97827.94
2022-11-27T05:47:07.905Z,97829.94
2022-11-27T05:49:41.087Z,97830.50
2022-11-27T05:52:09.286Z,97836.66
2022-11-27T05:54:35.931Z,97834.66
2022-11-27T05:57:02.655Z,97840.13
2022-11-27T05:59:29.558Z,97853.94
2022-11-27T06:01:56.421Z,97856.66
2022-11-27T06:04:23.137Z,97856.66
2022-11-27T06:06:50.225Z,97856.66
2022-11-27T06:09:16.979Z,97847.22
2022-11-27T06:11:43.781Z,97849.94
2022-11-27T06:14:10.855Z,97843.03
2022-11-27T06:16:37.862Z,97847.22
2022-11-27T06:19:04.607Z,97843.03
2022-11-27T06:21:31.345Z,97842.50
2022-11-27T06:23:58.297Z,97841.75
2022-11-27T06:26:27.250Z,97836.31
2022-11-27T06:28:55.444Z,97832.31
2022-11-27T06:31:24.587Z,97834.31
2022-11-27T06:33:52.733Z,97825.59
2022-11-27T06:36:20.407Z,97818.69
2022-11-27T06:38:47.148Z,97796.91
2022-11-27T06:41:16.944Z,97807.81
2022-11-27T06:43:44.169Z,97801.63
2022-11-27T06:46:16.088Z,97814.53
2022-11-27T06:48:44.071Z,97811.25
2022-11-27T06:51:12.754Z,97815.25
2022-11-27T06:53:39.872Z,97822.16
2022-11-27T06:56:09.326Z,97819.59
2022-11-27T06:58:37.111Z,97830.44
2022-11-27T07:01:06.706Z,97824.75
2022-11-27T07:03:33.630Z,97818.09
2022-11-27T07:06:03.430Z,97827.47
2022-11-27T07:08:30.724Z,97830.31
2022-11-27T07:11:06.192Z,97828.78
2022-11-27T07:13:33.413Z,97819.56
2022-11-27T07:16:02.810Z,97814.44
2022-11-27T07:18:30.877Z,97796.09
2022-11-27T07:20:57.553Z,97787.56
2022-11-27T07:23:24.397Z,97784.97
2022-11-27T07:25:51.188Z,97790.94
2022-11-27T07:28:19.234Z,97794.19
2022-11-27T07:30:46.327Z,97788.75
2022-11-27T07:33:13.097Z,97780.94
2022-11-27T07:35:39.793Z,97790.50
2022-11-27T07:38:06.509Z,97786.41
2022-11-27T07:40:33.378Z,97783.22
2022-11-27T07:43:00.279Z,97780.25
2022-11-27T07:45:26.998Z,97775.94
2022-11-27T07:47:54.190Z,97780.50
2022-11-27T07:50:20.878Z,97780.69
2022-11-27T07:52:47.792Z,97786.16
2022-11-27T07:55:14.742Z,97785.44
2022-11-27T07:57:42.504Z,97780.22
2022-11-27T08:00:09.915Z,97780.94
2022-11-27T08:02:36.690Z,97777.50
2022-11-27T08:05:08.131Z,97773.00
2022-11-27T08:07:37.910Z,97772.53
2022-11-27T08:10:05.042Z,97759.66
2022-11-27T08:12:32.474Z,97766.22
2022-11-27T08:14:59.678Z,97767.84
2022-11-27T08:17:26.849Z,97762.63
2022-11-27T08:19:53.629Z,97767.50
2022-11-27T08:22:20.769Z,97770.63
2022-11-27T08:24:48.201Z,97767.03
2022-11-27T08:27:16.412Z,97757.81
2022-11-27T08:29:43.378Z,97765.47
2022-11-27T08:32:10.251Z,97759.34
2022-11-27T08:34:37.438Z,97755.22
2022-11-27T08:37:07.651Z,97745.25
2022-11-27T08:39:52.796Z,97756.50
2022-11-27T08:42:21.091Z,97762.84
2022-11-27T08:44:48.131Z,97777.47
2022-11-27T08:47:16.849Z,97763.84
2022-11-27T08:49:46.308Z,97773.28
2022-11-27T08:52:13.333Z,97761.00
2022-11-27T08:54:40.228Z,97745.66
2022-11-27T08:57:07.084Z,97741.53
2022-11-27T08:59:37.953Z,97732.66
2022-11-27T09:02:05.736Z,97726.72
2022-11-27T09:04:32.939Z,97721.50
2022-11-27T09:07:00.024Z,97719.53
2022-11-27T09:09:27.306Z,97720.44
2022-11-27T09:11:57.234Z,97721.53
2022-11-27T09:14:24.935Z,97720.28
2022-11-27T09:16:53.106Z,97717.94
2022-11-27T09:19:21.739Z,97713.75
2022-11-27T09:21:50.710Z,97711.78
2022-11-27T09:24:17.600Z,97712.13
2022-11-27T09:26:44.944Z,97697.06
2022-11-27T09:29:11.694Z,97706.88
2022-11-27T09:31:39.045Z,97707.03
2022-11-27T09:34:06.661Z,97703.56
2022-11-27T09:36:33.715Z,97707.91
2022-11-27T09:39:00.525Z,97718.06
2022-11-27T09:41:39.760Z,97713.19
2022-11-27T09:44:12.849Z,97710.47
2022-11-27T09:46:42.062Z,97705.75
2022-11-27T09:49:13.272Z,97705.94
2022-11-27T09:51:52.983Z,97706.69
2022-11-27T09:54:52.209Z,97709.78
2022-11-27T09:57:29.728Z,97712.66
2022-11-27T09:59:59.011Z,97713.75
2022-11-27T10:02:31.383Z,97710.84
2022-11-27T10:05:15.495Z,97716.09
2022-11-27T10:08:22.423Z,97714.81
2022-11-27T10:11:01.688Z,97711.53
2022-11-27T10:13:44.160Z,97702.09
2022-11-27T10:16:25.168Z,97694.47
2022-11-27T10:18:58.253Z,97698.63
2022-11-27T10:21:45.381Z,97694.03
2022-11-27T10:24:40.281Z,97704.38
2022-11-27T10:27:39.920Z,97700.78
2022-11-27T10:30:18.137Z,97699.19
2022-11-27T10:32:54.962Z,97701.91
2022-11-27T10:35:28.225Z,97701.91
2022-11-27T10:37:56.344Z,97695.91
2022-11-27T10:40:39.230Z,97689.16
2022-11-27T10:43:24.623Z,97693.13
2022-11-27T10:45:57.011Z,97686.19
2022-11-27T10:48:24.238Z,97676.47
2022-11-27T10:50:52.927Z,97670.41
2022-11-27T10:53:39.914Z,97666.88
2022-11-27T10:56:13.941Z,97649.53
2022-11-27T10:58:43.649Z,97646.75
2022-11-27T11:01:16.408Z,97642.19
2022-11-27T11:03:43.526Z,97637.78
2022-11-27T11:06:24.547Z,97625.91
2022-11-27T11:09:04.044Z,97622.06
2022-11-27T11:11:30.987Z,97624.63
2022-11-27T11:13:57.752Z,97614.81
2022-11-27T11:16:35.146Z,97610.50
2022-11-27T11:19:02.917Z,97604.84
2022-11-27T11:21:35.366Z,97600.34
2022-11-27T11:24:12.807Z,97601.13
2022-11-27T11:26:45.054Z,97584.50
2022-11-27T11:29:34.539Z,97587.31
2022-11-27T11:32:11.208Z,97573.22
2022-11-27T11:34:42.909Z,97563.28
2022-11-27T11:37:22.214Z,97564.28
2022-11-27T11:40:01.055Z,97557.03
2022-11-27T11:42:30.390Z,97555.13
2022-11-27T11:45:13.347Z,97540.03
2022-11-27T11:47:49.907Z,97540.91
2022-11-27T11:50:33.715Z,97532.97
2022-11-27T11:53:20.060Z,97520.97
2022-11-27T11:56:16.121Z,97520.06
2022-11-27T11:58:54.607Z,97526.66
2022-11-27T12:01:57.033Z,97520.25
2022-11-27T12:05:03.965Z,97518.16
2022-11-27T12:07:30.736Z,97510.13
2022-11-27T12:10:05.342Z,97509.72
2022-11-27T12:12:48.116Z,97512.97
2022-11-27T12:15:44.297Z,97516.25
2022-11-27T12:18:37.023Z,97509.78
2022-11-27T12:21:18.696Z,97512.91
2022-11-27T12:24:33.573Z,97509.41
2022-11-27T12:27:51.724Z,97513.94
2022-11-27T12:30:21.045Z,97500.56
2022-11-27T12:32:53.418Z,97505.03
2022-11-27T12:35:34.845Z,97507.78
2022-11-27T12:38:29.610Z,97508.31
2022-11-27T12:41:23.522Z,97500.00
2022-11-27T12:43:55.930Z,97495.72
2022-11-27T12:46:26.995Z,97489.66
2022-11-27T12:48:57.089Z,97473.53
2022-11-27T12:51:27.859Z,97467.91
2022-11-27T12:54:01.277Z,97459.44
2022-11-27T12:56:30.207Z,97448.22
2022-11-27T12:59:02.533Z,97441.44
2022-11-27T13:01:44.302Z,97438.81
2022-11-27T13:04:13.988Z,97430.47
2022-11-27T13:06:58.585Z,97422.69
2022-11-27T13:09:48.664Z,97401.97
2022-11-27T13:12:25.081Z,97399.94
2022-11-27T13:15:00.306Z,97395.59
2022-11-27T13:17:34.475Z,97389.09
2022-11-27T13:20:02.155Z,97395.13
2022-11-27T13:22:32.127Z,97384.47
2022-11-27T13:25:01.769Z,97388.38
2022-11-27T13:27:30.174Z,97391.81
2022-11-27T13:30:06.848Z,97396.72
2022-11-27T13:32:40.926Z,97388.38
2022-11-27T13:35:33.909Z,97393.94
2022-11-27T13:38:06.554Z,97396.69
2022-11-27T13:40:38.710Z,97390.66
2022-11-27T13:43:07.354Z,97382.00
2022-11-27T13:45:36.991Z,97385.06
2022-11-27T13:48:20.721Z,97382.75
2022-11-27T13:50:53.821Z,97379.72
2022-11-27T13:53:47.582Z,97374.13
2022-11-27T13:56:14.274Z,97377.72
2022-11-27T13:58:43.212Z,97361.75
2022-11-27T14:01:18.454Z,97363.59
2022-11-27T14:03:45.373Z,97356.81
2022-11-27T14:06:20.005Z,97344.44
2022-11-27T14:08:58.578Z,97353.38
2022-11-27T14:11:32.209Z,97350.91
2022-11-27T14:13:59.447Z,97352.81
2022-11-27T14:16:39.045Z,97352.09
2022-11-27T14:19:21.940Z,97347.34
2022-11-27T14:21:49.372Z,97345.91
2022-11-27T14:24:26.619Z,97348.91
2022-11-27T14:26:54.301Z,97348.75
2022-11-27T14:29:22.461Z,97342.97
2022-11-27T14:32:00.452Z,97345.72
2022-11-27T14:34:34.409Z,97338.78
2022-11-27T14:37:01.245Z,97326.81
2022-11-27T14:39:30.531Z,97326.09
2022-11-27T14:42:02.474Z,97327.09
2022-11-27T14:44:29.924Z,97327.81
2022-11-27T14:46:59.408Z,97326.22
2022-11-27T14:49:27.778Z,97321.88
2022-11-27T14:52:01.422Z,97325.38
2022-11-27T14:54:39.554Z,97328.94
2022-11-27T14:57:07.158Z,97322.47
2022-11-27T14:59:33.849Z,97326.72
2022-11-27T15:02:10.187Z,97325.97
2022-11-27T15:04:39.809Z,97327.41
2022-11-27T15:07:27.860Z,97318.47
2022-11-27T15:09:57.104Z,97319.75
2022-11-27T15:12:28.186Z,97312.53
2022-11-27T15:15:10.353Z,97303.63
2022-11-27T15:17:38.869Z,97296.59
2022-11-27T15:20:15.274Z,97291.13
2022-11-27T15:22:56.001Z,97283.91
2022-11-27T15:25:48.980Z,97279.63
2022-11-27T15:28:43.457Z,97275.13
2022-11-27T15:31:37.487Z,97264.47
2022-11-27T15:34:07.177Z,97261.13
2022-11-27T15:36:42.014Z,97261.13
2022-11-27T15:39:21.047Z,97249.34
2022-11-27T15:41:55.520Z,97249.22
2022-11-27T15:44:23.692Z,97247.59
2022-11-27T15:46:51.497Z,97256.41
2022-11-27T15:49:19.713Z,97255.41
2022-11-27T15:51:46.593Z,97241.91
2022-11-27T15:54:13.363Z,97242.22
2022-11-27T15:56:40.089Z,97235.88
2022-11-27T15:59:07.106Z,97230.84
2022-11-27T16:01:33.825Z,97233.56
2022-11-27T16:04:05.557Z,97236.31
2022-11-27T16:06:36.338Z,97234.28
2022-11-27T16:09:04.226Z,97236.44
2022-11-27T16:11:31.577Z,97224.09
2022-11-27T16:13:58.555Z,97221.75
2022-11-27T16:16:25.694Z,97219.75
2022-11-27T16:18:52.409Z,97208.13
2022-11-27T16:21:19.332Z,97206.38
2022-11-27T16:23:45.983Z,97196.75
2022-11-27T16:26:14.047Z,97205.06
2022-11-27T16:28:41.249Z,97192.00
2022-11-27T16:31:11.153Z,97185.81
2022-11-27T16:33:38.117Z,97185.69
2022-11-27T16:36:13.535Z,97179.59
2022-11-27T16:38:42.286Z,97177.03
2022-11-27T16:41:16.081Z,97169.81
2022-11-27T16:43:46.082Z,97160.63
2022-11-27T16:46:15.828Z,97159.72
2022-11-27T16:48:44.413Z,97167.59
2022-11-27T16:51:18.151Z,97162.59
2022-11-27T16:53:47.159Z,97152.31
2022-11-27T16:56:15.406Z,97142.03
2022-11-27T16:58:44.223Z,97143.91
2022-11-27T17:01:17.462Z,97137.03
2022-11-27T17:03:45.882Z,97136.19
2022-11-27T17:06:15.151Z,97127.88
2022-11-27T17:08:42.154Z,97116.53
2022-11-27T17:11:29.389Z,97121.84
2022-11-27T17:13:58.224Z,97116.69
2022-11-27T17:16:27.182Z,97119.16
2022-11-27T17:18:54.513Z,97121.47
2022-11-27T17:21:30.467Z,97118.31
2022-11-27T17:24:03.622Z,97102.91
2022-11-27T17:26:44.201Z,97118.16
2022-11-27T17:29:16.700Z,97096.44
2022-11-27T17:31:44.075Z,97097.31
2022-11-27T17:34:13.669Z,97090.69
2022-11-27T17:36:42.922Z,97089.56
2022-11-27T17:39:12.776Z,97085.09
2022-11-27T17:41:40.617Z,97077.63
2022-11-27T17:44:08.236Z,97071.00
2022-11-27T17:46:36.290Z,97066.97
2022-11-27T17:49:06.338Z,97078.03
2022-11-27T17:51:34.731Z,97077.44
2022-11-27T17:54:03.014Z,97067.97
2022-11-27T17:56:31.917Z,97069.53
2022-11-27T17:58:59.955Z,97067.53
2022-11-27T18:01:29.270Z,97065.50
2022-11-27T18:03:59.867Z,97049.81
2022-11-27T18:06:29.411Z,97058.19
2022-11-27T18:08:58.212Z,97052.72
2022-11-27T18:11:28.259Z,97046.66
2022-11-27T18:13:58.320Z,97045.53
2022-11-27T18:16:31.440Z,97044.81
2022-11-27T18:18:59.141Z,97025.69
2022-11-27T18:21:29.331Z,97038.03
2022-11-27T18:27:07.351Z,97045.66
2022-11-27T18:29:29.775Z,97040.31
2022-11-27T18:31:56.601Z,97039.59
2022-11-27T18:34:23.407Z,97040.31
2022-11-27T18:36:50.136Z,97032.13
2022-11-27T18:39:16.866Z,97021.75
2022-11-27T18:41:43.520Z,97021.19
2022-11-27T18:44:10.486Z,97019.03
2022-11-27T18:46:38.391Z,97027.22
2022-11-27T18:49:05.555Z,97029.25
2022-11-27T18:51:32.735Z,97023.78
2022-11-27T18:53:59.642Z,97026.53
2022-11-27T18:56:30.410Z,97032.00
2022-11-27T18:59:03.295Z,97039.47
2022-11-27T19:01:35.396Z,97026.53
2022-11-27T19:04:04.150Z,97025.81
2022-11-27T19:06:31.033Z,97026.38
2022-11-27T19:08:58.988Z,97020.78
2022-11-27T19:11:28.526Z,97026.22
2022-11-27T19:13:56.598Z,97014.59
2022-11-27T19:16:26.429Z,97016.00
2022-11-27T19:18:55.814Z,97009.13
2022-11-27T19:21:24.957Z,97004.25
2022-11-27T19:23:54.533Z,97006.97
2022-11-27T19:26:33.383Z,96995.91
2022-11-27T19:29:03.709Z,96991.88
2022-11-27T19:31:33.039Z,96997.34
2022-11-27T19:34:01.569Z,96993.19
2022-11-27T19:36:30.545Z,96990.44
2022-11-27T19:39:01.521Z,96991.72
2022-11-27T19:41:30.066Z,96983.53
2022-11-27T19:44:04.803Z,96973.88
2022-11-27T19:46:34.656Z,96974.59
2022-11-27T19:49:08.633Z,96978.63
2022-11-27T19:51:37.615Z,96977.22
2022-11-27T19:54:09.934Z,96972.47
2022-11-27T19:56:40.408Z,96975.91
2022-11-27T19:59:08.425Z,96982.09
2022-11-27T20:01:35.936Z,96963.69
2022-11-27T20:04:04.070Z,96964.25
2022-11-27T20:06:30.893Z,96967.72
2022-11-27T20:09:00.803Z,96962.25
2022-11-27T20:11:34.164Z,96970.44
2022-11-27T20:14:02.205Z,96965.09
2022-11-27T20:16:28.986Z,96964.97
2022-11-27T20:18:56.011Z,96957.50
2022-11-27T20:21:25.676Z,96961.53
2022-11-27T20:23:54.636Z,96950.59
2022-11-27T20:26:25.247Z,96945.13
2022-11-27T20:28:54.089Z,96943.13
2022-11-27T20:31:24.398Z,96947.88
2022-11-27T20:33:52.861Z,96944.53
2022-11-27T20:36:22.462Z,96949.88
2022-11-27T20:38:50.576Z,96936.94
2022-11-27T20:41:19.607Z,96931.47
2022-11-27T20:43:50.556Z,96935.63
2022-11-27T20:46:18.132Z,96930.88
2022-11-27T20:48:46.497Z,96919.94
2022-11-27T20:51:16.699Z,96921.25
2022-11-27T20:53:44.726Z,96911.03
2022-11-27T20:56:12.954Z,96921.25
2022-11-27T20:58:40.904Z,96929.44
2022-11-27T21:01:29.685Z,96931.59
2022-11-27T21:03:57.409Z,96926.13
2022-11-27T21:06:26.074Z,96930.88
2022-11-27T21:08:53.789Z,96927.44
2022-11-27T21:11:25.121Z,96935.63
2022-11-27T21:14:04.025Z,96933.63
2022-11-27T21:16:33.730Z,96928.16
2022-11-27T21:19:21.585Z,96933.75
2022-11-27T21:21:50.181Z,96931.59
2022-11-27T21:24:18.415Z,96923.41
2022-11-27T21:26:45.621Z,96926.13
2022-11-27T21:29:15.130Z,96917.94
2022-11-27T21:31:46.448Z,96915.78
2022-11-27T21:34:15.009Z,96915.19
2022-11-27T21:36:43.247Z,96907.59
2022-11-27T21:39:11.879Z,96897.97
2022-11-27T21:41:38.656Z,96894.63
2022-11-27T21:44:05.823Z,96892.63
2022-11-27T21:46:33.707Z,96883.69
2022-11-27T21:49:03.995Z,96886.44
2022-11-27T21:51:31.342Z,96883.69
2022-11-27T21:53:59.430Z,96884.41
2022-11-27T21:56:28.384Z,96875.50
2022-11-27T21:58:55.354Z,96868.72
2022-11-27T22:01:24.093Z,96878.25
2022-11-27T22:03:54.170Z,96871.34
2022-11-27T22:06:21.745Z,96873.22
2022-11-27T22:08:50.182Z,96865.31
2022-11-27T22:11:19.940Z,96876.84
2022-11-27T22:13:48.746Z,96863.34
2022-11-27T22:16:18.217Z,96873.78
2022-11-27T22:18:45.610Z,96864.28
2022-11-27T22:21:13.434Z,96865.75
2022-11-27T22:23:42.049Z,96869.19
2022-11-27T22:26:14.211Z,96868.47
2022-11-27T22:28:41.314Z,96865.75
2022-11-27T22:31:17.482Z,96860.28
2022-11-27T22:33:45.283Z,96872.66
2022-11-27T22:36:22.895Z,96863.72
2022-11-27T22:38:52.050Z,96864.44
2022-11-27T22:41:20.841Z,96861.72
2022-11-27T22:43:47.802Z,96862.44
2022-11-27T22:46:23.260Z,96863.03
2022-11-27T22:48:58.218Z,96857.41
2022-11-27T22:51:26.586Z,96854.66
2022-11-27T22:53:53.466Z,96851.22
2022-11-27T22:56:20.453Z,96858.69
2022-11-27T22:58:48.091Z,96847.19
2022-11-27T23:01:18.168Z,96848.38
2022-11-27T23:03:45.465Z,96853.25
2022-11-27T23:06:14.732Z,96852.53
2022-11-27T23:08:42.890Z,96857.88
2022-11-27T23:11:10.965Z,96850.38
2022-11-27T23:13:37.618Z,96855.69
2022-11-27T23:16:06.120Z,96854.97
2022-11-27T23:18:33.484Z,96854.25
2022-11-27T23:21:00.485Z,96846.06
2022-11-27T23:23:27.213Z,96850.09
2022-11-27T23:25:53.914Z,96848.09
2022-11-27T23:28:20.630Z,96834.44
2022-11-27T23:30:48.523Z,96835.84
2022-11-27T23:33:19.396Z,96842.63
2022-11-27T23:35:46.050Z,96846.78
2022-11-27T23:38:12.904Z,96844.06
2022-11-27T23:40:39.772Z,96848.09
2022-11-27T23:43:06.578Z,96844.63
2022-11-27T23:45:33.314Z,96843.94
2022-11-27T23:48:00.097Z,96828.25
2022-11-27T23:50:26.750Z,96840.72
2022-11-27T23:52:54.182Z,96829.81
2022-11-27T23:55:20.864Z,96831.25
2022-11-27T23:57:47.650Z,96834.00
